Sloman Themis — 9HA3701 — position and weather

sailwx.info

Track history (hours):
 
Tides and Currents Weather Stations Pressure Air Temp Water Temp Dewpoint Dewpoint Depression Visibility Wind Speed Wind Dir Waves Ship Positions

Sloman Themis

Last reported at 2018-Feb-20 23:21 UTC. Time now 2018-Feb-21 03:54 UTC.
Position N 35°58' W 005°40'.

Length 171 m; draft 9.9 m.

Type: Tanker. MMSI: 229899000.

Date/timePositionNaut miles runAvg speedWind from/ knotsBaromVisibWave heightAir tempDewpointWater temp
2018-Feb-20 23:21N 35°58' W 005°40'410.4
2018-Feb-20 23:00N 35°58' W 005°35'5 9.4
2018-Feb-20 22:30N 35°59' W 005°30'4 8.7
2018-Feb-20 22:00N 36°00' W 005°25'5 9.4
2018-Feb-20 21:30N 36°01' W 005°19'510.5
2018-Feb-20 21:00N 36°02' W 005°12'612.2
2018-Feb-20 20:29N 36°03' W 005°05'612.1
2018-Feb-20 20:00N 36°04' W 004°58'612.0
2018-Feb-20 19:29N 36°05' W 004°50'  
2018-Feb-15 22:59N 36°11' W 005°24'0 0.0
2018-Feb-15 22:17N 36°11' W 005°24'0 0.0
2018-Feb-15 21:56N 36°11' W 005°24'0 0.0
2018-Feb-15 19:04N 36°11' W 005°24'0 0.0
2018-Feb-14 21:55N 36°10' W 005°24'0 0.0
2018-Feb-13 01:07N 36°10' W 005°23'0 0.1
2018-Feb-12 23:08N 36°10' W 005°24'0 3.7
2018-Feb-12 23:00N 36°10' W 005°24'4 7.2
2018-Feb-12 22:29N 36°06' W 005°24'4 8.1
2018-Feb-12 22:00N 36°02' W 005°23'611.5
2018-Feb-12 21:31N 35°58' W 005°28'  
Track history (hours):
 
Tides and Currents Weather Stations Pressure Air Temp Water Temp Dewpoint Dewpoint Depression Visibility Wind Speed Wind Dir Waves Ship Positions

Sloman Themis

Last reported at 2018-Feb-20 23:21 UTC. Time now 2018-Feb-21 03:54 UTC.
Position N 35°58' W 005°40'.

Length 171 m; draft 9.9 m.

Type: Tanker. MMSI: 229899000.

Date/timePositionNaut miles runAvg speedWind from/ knotsBaromVisibWave heightAir tempDewpointWater temp
2018-Feb-20 23:21N 35°58' W 005°40'410.4
2018-Feb-20 23:00N 35°58' W 005°35'5 9.4
2018-Feb-20 22:30N 35°59' W 005°30'4 8.7
2018-Feb-20 22:00N 36°00' W 005°25'5 9.4
2018-Feb-20 21:30N 36°01' W 005°19'510.5
2018-Feb-20 21:00N 36°02' W 005°12'612.2
2018-Feb-20 20:29N 36°03' W 005°05'612.1
2018-Feb-20 20:00N 36°04' W 004°58'612.0
2018-Feb-20 19:29N 36°05' W 004°50'  
2018-Feb-15 22:59N 36°11' W 005°24'0 0.0
2018-Feb-15 22:17N 36°11' W 005°24'0 0.0
2018-Feb-15 21:56N 36°11' W 005°24'0 0.0
2018-Feb-15 19:04N 36°11' W 005°24'0 0.0
2018-Feb-14 21:55N 36°10' W 005°24'0 0.0
2018-Feb-13 01:07N 36°10' W 005°23'0 0.1
2018-Feb-12 23:08N 36°10' W 005°24'0 3.7
2018-Feb-12 23:00N 36°10' W 005°24'4 7.2
2018-Feb-12 22:29N 36°06' W 005°24'4 8.1
2018-Feb-12 22:00N 36°02' W 005°23'611.5
2018-Feb-12 21:31N 35°58' W 005°28'  

Dump ship's entire track history